createdAt,value
2018-10-17T00:01:51.023Z,27.53
2018-10-17T00:04:19.332Z,25.13
2018-10-17T00:06:47.646Z,28.70
2018-10-17T00:09:15.949Z,27.03
2018-10-17T00:11:44.294Z,29.07
2018-10-17T00:14:12.611Z,26.40
2018-10-17T00:16:40.958Z,27.13
2018-10-17T00:19:09.358Z,28.77
2018-10-17T00:21:37.636Z,28.07
2018-10-17T00:24:05.945Z,30.87
2018-10-17T00:26:34.296Z,29.27
2018-10-17T00:29:02.751Z,28.77
2018-10-17T00:31:30.960Z,30.93
2018-10-17T00:33:59.299Z,31.50
2018-10-17T00:36:27.598Z,35.03
2018-10-17T00:38:56.060Z,38.10
2018-10-17T00:41:25.191Z,38.37
2018-10-17T00:43:53.558Z,36.77
2018-10-17T00:46:21.898Z,36.13
2018-10-17T00:48:50.219Z,36.20
2018-10-17T00:51:18.583Z,35.80
2018-10-17T00:53:46.913Z,35.00
2018-10-17T00:56:15.199Z,35.40
2018-10-17T00:58:53.473Z,37.57
2018-10-17T01:01:21.819Z,34.60
2018-10-17T01:03:50.103Z,34.93
2018-10-17T01:06:18.491Z,34.27
2018-10-17T01:08:46.841Z,35.40
2018-10-17T01:11:15.220Z,32.27
2018-10-17T01:13:43.529Z,31.57
2018-10-17T01:16:11.888Z,36.30
2018-10-17T01:18:40.151Z,36.73
2018-10-17T01:21:08.510Z,36.03
2018-10-17T01:23:36.778Z,35.60
2018-10-17T01:26:05.058Z,36.07
2018-10-17T01:28:33.419Z,36.70
2018-10-17T01:31:01.900Z,34.37
2018-10-17T01:33:30.130Z,29.17
2018-10-17T01:35:58.477Z,31.33
2018-10-17T01:38:26.854Z,32.37
2018-10-17T01:40:55.174Z,33.23
2018-10-17T01:43:23.471Z,33.53
2018-10-17T01:45:51.770Z,34.07
2018-10-17T01:48:20.114Z,33.87
2018-10-17T01:50:48.470Z,32.30
2018-10-17T01:53:16.784Z,31.80
2018-10-17T01:55:45.127Z,33.70
2018-10-17T01:58:13.584Z,34.23
2018-10-17T02:00:41.919Z,32.70
2018-10-17T02:03:10.278Z,32.27
2018-10-17T02:05:38.560Z,34.30
2018-10-17T02:08:06.906Z,33.00
2018-10-17T02:10:35.219Z,32.17
2018-10-17T02:13:03.767Z,30.80
2018-10-17T02:15:31.973Z,31.97
2018-10-17T02:18:00.355Z,30.50
2018-10-17T02:20:28.643Z,31.60
2018-10-17T02:22:57.010Z,27.00
2018-10-17T02:25:25.363Z,31.83
2018-10-17T02:27:53.756Z,35.63
2018-10-17T02:30:22.117Z,30.90
2018-10-17T02:32:50.502Z,34.20
2018-10-17T02:35:19.416Z,35.50
2018-10-17T02:37:48.000Z,32.87
2018-10-17T02:40:16.380Z,31.33
2018-10-17T02:42:44.681Z,32.43
2018-10-17T02:45:13.992Z,34.07
2018-10-17T02:47:42.320Z,32.93
2018-10-17T02:50:11.861Z,35.10
2018-10-17T02:52:43.266Z,35.00
2018-10-17T02:55:14.761Z,33.03
2018-10-17T02:57:43.812Z,37.07
2018-10-17T03:00:12.202Z,32.80
2018-10-17T03:02:40.547Z,32.23
2018-10-17T03:05:08.967Z,34.83
2018-10-17T03:07:37.278Z,34.83
2018-10-17T03:10:05.706Z,32.73
2018-10-17T03:12:34.066Z,33.90
2018-10-17T03:15:02.403Z,36.00
2018-10-17T03:17:30.766Z,37.70
2018-10-17T03:19:59.149Z,37.27
2018-10-17T03:22:27.489Z,38.10
2018-10-17T03:24:55.932Z,37.90
2018-10-17T03:27:24.241Z,35.93
2018-10-17T03:29:52.607Z,36.43
2018-10-17T03:32:20.965Z,36.23
2018-10-17T03:34:49.372Z,35.27
2018-10-17T03:37:17.787Z,36.17
2018-10-17T03:39:46.081Z,35.67
2018-10-17T03:42:14.421Z,36.17
2018-10-17T03:44:42.783Z,36.37
2018-10-17T03:47:11.200Z,32.83
2018-10-17T03:49:39.563Z,34.70
2018-10-17T03:52:07.844Z,34.83
2018-10-17T03:54:36.152Z,32.60
2018-10-17T03:57:04.661Z,33.87
2018-10-17T03:59:33.186Z,33.87
2018-10-17T04:02:01.472Z,35.10
2018-10-17T04:04:30.022Z,30.67
2018-10-17T04:06:58.413Z,32.47
2018-10-17T04:09:26.746Z,34.50
2018-10-17T04:11:55.162Z,32.93
2018-10-17T04:14:23.564Z,32.83
2018-10-17T04:16:51.932Z,34.47
2018-10-17T04:19:20.347Z,33.90
2018-10-17T04:21:48.749Z,32.70
2018-10-17T04:24:17.209Z,31.50
2018-10-17T04:26:46.073Z,32.90
2018-10-17T04:29:14.597Z,34.07
2018-10-17T04:31:43.038Z,33.67
2018-10-17T04:34:11.450Z,34.53
2018-10-17T04:36:39.929Z,33.50
2018-10-17T04:39:10.268Z,33.33
2018-10-17T04:41:38.614Z,38.13
2018-10-17T04:44:07.729Z,35.73
2018-10-17T04:46:36.076Z,37.60
2018-10-17T04:49:04.852Z,34.50
2018-10-17T04:51:33.137Z,34.90
2018-10-17T04:54:01.530Z,33.47
2018-10-17T04:56:30.071Z,31.23
2018-10-17T04:58:58.480Z,35.50
2018-10-17T05:01:27.010Z,35.17
2018-10-17T05:03:55.530Z,36.00
2018-10-17T05:06:23.896Z,36.03
2018-10-17T05:08:52.754Z,39.00
2018-10-17T05:11:21.363Z,38.83
2018-10-17T05:13:49.963Z,39.47
2018-10-17T05:16:18.299Z,40.07
2018-10-17T05:25:44.007Z,40.70
2018-10-17T05:28:12.735Z,40.20
2018-10-17T05:30:41.256Z,42.13
2018-10-17T05:33:09.651Z,39.97
2018-10-17T05:35:38.010Z,39.57
2018-10-17T05:38:06.484Z,32.93
2018-10-17T05:40:35.150Z,37.80
2018-10-17T05:43:03.694Z,36.83
2018-10-17T05:45:32.122Z,35.47
2018-10-17T05:48:00.490Z,37.23
2018-10-17T05:50:28.849Z,37.00
2018-10-17T05:52:57.353Z,36.40
2018-10-17T05:55:25.802Z,40.50
2018-10-17T05:57:54.502Z,39.70
2018-10-17T06:00:23.024Z,37.27
2018-10-17T06:02:51.570Z,38.27
2018-10-17T06:05:19.965Z,39.00
2018-10-17T06:07:48.413Z,37.00
2018-10-17T06:10:16.976Z,39.27
2018-10-17T06:12:45.412Z,41.10
2018-10-17T06:15:13.742Z,40.47
2018-10-17T06:17:42.225Z,39.47
2018-10-17T06:20:10.766Z,41.53
2018-10-17T06:22:39.109Z,40.53
2018-10-17T06:25:09.859Z,42.90
2018-10-17T06:27:38.161Z,42.00
2018-10-17T06:30:07.873Z,42.70
2018-10-17T06:32:36.245Z,44.77
2018-10-17T06:35:05.117Z,43.77
2018-10-17T06:37:33.409Z,43.13
2018-10-17T06:40:01.785Z,43.00
2018-10-17T06:42:30.165Z,42.97
2018-10-17T06:44:58.542Z,43.20
2018-10-17T06:47:26.917Z,43.23
2018-10-17T06:49:55.254Z,42.60
2018-10-17T06:52:23.565Z,44.40
2018-10-17T06:54:51.985Z,45.27
2018-10-17T06:57:20.405Z,48.23
2018-10-17T06:59:48.782Z,49.57
2018-10-17T07:02:17.326Z,49.27
2018-10-17T07:04:45.677Z,48.40
2018-10-17T07:07:14.108Z,54.27
2018-10-17T07:09:42.393Z,55.70
2018-10-17T07:12:10.898Z,56.37
2018-10-17T07:14:39.352Z,58.73
2018-10-17T07:17:07.755Z,58.37
2018-10-17T07:19:36.054Z,62.50
2018-10-17T07:22:04.465Z,65.93
2018-10-17T07:24:32.876Z,63.57
2018-10-17T07:27:01.284Z,63.03
2018-10-17T07:29:29.841Z,59.27
2018-10-17T07:31:58.178Z,61.50
2018-10-17T07:34:26.593Z,62.30
2018-10-17T07:36:55.093Z,63.47
2018-10-17T07:39:23.417Z,61.10
2018-10-17T07:41:51.804Z,58.30
2018-10-17T07:44:20.173Z,56.00
2018-10-17T07:46:48.496Z,52.93
2018-10-17T07:49:16.829Z,55.40
2018-10-17T07:51:45.159Z,54.17
2018-10-17T07:54:13.586Z,47.07
2018-10-17T07:56:42.284Z,47.50
2018-10-17T07:59:10.728Z,45.53
2018-10-17T08:01:39.082Z,48.93
2018-10-17T08:04:07.412Z,49.30
2018-10-17T08:06:35.789Z,45.63
2018-10-17T08:09:05.997Z,42.10
2018-10-17T08:11:34.437Z,41.33
2018-10-17T08:14:02.820Z,41.63
2018-10-17T08:16:31.218Z,44.17
2018-10-17T08:18:59.574Z,38.97
2018-10-17T08:21:28.006Z,35.40
2018-10-17T08:23:56.491Z,37.13
2018-10-17T08:26:24.805Z,34.73
2018-10-17T08:28:53.217Z,35.27
2018-10-17T08:31:21.582Z,33.47
2018-10-17T08:33:49.921Z,34.80
2018-10-17T08:36:18.451Z,29.70
2018-10-17T08:38:46.650Z,30.90
2018-10-17T08:41:15.296Z,30.90
2018-10-17T08:43:43.709Z,32.20
2018-10-17T08:46:12.560Z,30.73
2018-10-17T08:48:40.941Z,31.73
2018-10-17T08:51:09.512Z,30.80
2018-10-17T08:53:37.825Z,32.40
2018-10-17T08:56:06.322Z,30.93
2018-10-17T08:58:34.639Z,32.40
2018-10-17T09:01:03.066Z,30.23
2018-10-17T09:03:31.441Z,30.97
2018-10-17T09:05:59.879Z,30.83
2018-10-17T09:08:28.173Z,28.97
2018-10-17T09:10:56.549Z,31.30
2018-10-17T09:13:25.115Z,34.20
2018-10-17T09:15:53.492Z,32.83
2018-10-17T09:18:21.910Z,34.00
2018-10-17T09:20:50.542Z,32.07
2018-10-17T09:23:18.633Z,30.97
2018-10-17T09:25:47.106Z,31.17
2018-10-17T09:28:15.553Z,29.80
2018-10-17T09:30:43.929Z,29.77
2018-10-17T09:33:12.250Z,29.63
2018-10-17T09:35:40.678Z,29.03
2018-10-17T09:38:09.071Z,28.60
2018-10-17T09:40:37.433Z,27.30
2018-10-17T09:43:06.054Z,27.60
2018-10-17T09:45:34.398Z,26.70
2018-10-17T09:48:02.739Z,23.13
2018-10-17T09:50:31.128Z,24.27
2018-10-17T09:52:59.516Z,24.67
2018-10-17T09:55:27.868Z,23.63
2018-10-17T09:57:56.256Z,23.80
2018-10-17T10:00:29.765Z,23.17
2018-10-17T10:02:58.185Z,22.97
2018-10-17T10:05:26.505Z,22.40
2018-10-17T10:07:54.829Z,22.30
2018-10-17T10:10:23.204Z,20.87
2018-10-17T10:12:51.561Z,19.33
2018-10-17T10:15:20.033Z,20.87
2018-10-17T10:17:48.538Z,18.50
2018-10-17T10:20:16.926Z,17.90
2018-10-17T10:22:45.282Z,16.97
2018-10-17T10:25:13.714Z,18.00
2018-10-17T10:27:42.018Z,15.63
2018-10-17T10:30:10.422Z,16.53
2018-10-17T10:32:38.803Z,16.48
2018-10-17T10:35:07.371Z,14.93
2018-10-17T10:37:35.833Z,15.18
2018-10-17T10:40:04.690Z,14.28
2018-10-17T10:42:33.074Z,14.95
2018-10-17T10:45:01.546Z,13.53
2018-10-17T10:47:29.860Z,14.38
2018-10-17T10:49:58.343Z,13.35
2018-10-17T10:52:26.694Z,13.58
2018-10-17T10:55:01.801Z,11.22
2018-10-17T10:57:30.177Z,11.10
2018-10-17T10:59:58.563Z,11.50
2018-10-17T11:02:27.017Z,11.22
2018-10-17T11:04:55.494Z,11.20
2018-10-17T11:07:23.913Z,10.60
2018-10-17T11:09:52.293Z,9.43
2018-10-17T11:12:20.697Z,11.35
2018-10-17T11:14:49.289Z,10.45
2018-10-17T11:17:17.493Z,10.88
2018-10-17T11:19:45.833Z,9.83
2018-10-17T11:22:14.166Z,9.28
2018-10-17T11:24:42.742Z,9.68
2018-10-17T11:27:11.239Z,10.03
2018-10-17T11:29:39.477Z,10.15
2018-10-17T11:32:07.861Z,11.43
2018-10-17T11:34:36.234Z,9.83
2018-10-17T11:37:04.586Z,9.25
2018-10-17T11:39:32.913Z,8.95
2018-10-17T11:42:01.277Z,9.75
2018-10-17T11:44:29.597Z,9.63
2018-10-17T11:46:58.010Z,9.73
2018-10-17T11:49:26.345Z,13.62
2018-10-17T11:51:54.653Z,11.50
2018-10-17T11:54:22.973Z,11.43
2018-10-17T11:56:51.365Z,10.25
2018-10-17T11:59:19.731Z,12.15
2018-10-17T12:01:48.065Z,9.75
2018-10-17T12:04:16.794Z,10.32
2018-10-17T12:06:44.739Z,8.90
2018-10-17T12:09:13.096Z,8.80
2018-10-17T12:11:41.502Z,8.70
2018-10-17T12:14:09.733Z,9.28
2018-10-17T12:16:38.062Z,8.95
2018-10-17T12:19:12.921Z,9.20
2018-10-17T12:21:41.246Z,8.73
2018-10-17T12:24:09.633Z,8.95
2018-10-17T12:26:37.941Z,8.75
2018-10-17T12:29:06.274Z,9.00
2018-10-17T12:31:34.626Z,7.30
2018-10-17T12:34:03.010Z,8.80
2018-10-17T12:36:31.425Z,7.50
2018-10-17T12:38:59.821Z,7.75
2018-10-17T12:41:28.121Z,8.48
2018-10-17T12:43:56.644Z,8.70
2018-10-17T12:46:24.989Z,8.03
2018-10-17T12:48:53.341Z,7.25
2018-10-17T12:51:21.682Z,7.95
2018-10-17T12:53:50.049Z,9.13
2018-10-17T12:56:18.510Z,8.38
2018-10-17T12:58:46.861Z,8.65
2018-10-17T13:01:15.339Z,8.13
2018-10-17T13:03:43.653Z,8.23
2018-10-17T13:06:12.070Z,8.35
2018-10-17T13:08:40.496Z,8.93
2018-10-17T13:11:09.371Z,8.20
2018-10-17T13:13:37.646Z,7.83
2018-10-17T13:16:06.248Z,8.10
2018-10-17T13:18:34.614Z,8.28
2018-10-17T13:21:02.938Z,9.48
2018-10-17T13:23:31.314Z,9.10
2018-10-17T13:25:59.835Z,8.68
2018-10-17T13:28:28.225Z,8.98
2018-10-17T13:30:56.715Z,8.60
2018-10-17T13:33:24.996Z,9.30
2018-10-17T13:35:53.398Z,9.05
2018-10-17T13:38:21.800Z,8.60
2018-10-17T13:40:50.150Z,8.70
2018-10-17T13:43:18.693Z,8.50
2018-10-17T13:45:46.916Z,8.75
2018-10-17T13:48:15.323Z,9.55
2018-10-17T13:50:43.702Z,9.08
2018-10-17T13:53:12.216Z,9.30
2018-10-17T13:55:40.497Z,8.78
2018-10-17T13:58:08.866Z,9.53
2018-10-17T14:00:37.173Z,9.45
2018-10-17T14:03:05.584Z,9.95
2018-10-17T14:05:33.937Z,8.93
2018-10-17T14:08:02.313Z,9.78
2018-10-17T14:10:30.694Z,8.43
2018-10-17T14:12:59.192Z,10.75
2018-10-17T14:15:27.604Z,8.50
2018-10-17T14:17:56.005Z,9.78
2018-10-17T14:20:24.313Z,10.63
2018-10-17T14:22:52.717Z,10.27
2018-10-17T14:25:21.261Z,19.23
2018-10-17T14:27:54.644Z,11.30
2018-10-17T14:30:23.004Z,15.77
2018-10-17T14:32:51.451Z,11.53
2018-10-17T14:35:19.781Z,11.63
2018-10-17T14:37:48.242Z,11.50
2018-10-17T14:40:16.506Z,11.20
2018-10-17T14:42:44.865Z,11.00
2018-10-17T14:45:13.344Z,11.03
2018-10-17T14:47:41.719Z,16.93
2018-10-17T14:50:10.072Z,9.93
2018-10-17T14:52:38.486Z,11.37
2018-10-17T14:55:07.840Z,10.63
2018-10-17T14:57:36.267Z,9.77
2018-10-17T15:00:05.520Z,10.80
2018-10-17T15:02:34.180Z,8.90
2018-10-17T15:05:02.627Z,9.70
2018-10-17T15:07:31.024Z,10.43
2018-10-17T15:09:59.502Z,9.87
2018-10-17T15:12:27.801Z,10.20
2018-10-17T15:14:56.266Z,10.53
2018-10-17T15:17:24.584Z,9.33
2018-10-17T15:19:52.938Z,10.93
2018-10-17T15:22:21.385Z,10.97
2018-10-17T15:24:49.818Z,10.67
2018-10-17T15:27:18.166Z,10.47
2018-10-17T15:29:46.474Z,11.20
2018-10-17T15:32:14.866Z,10.27
2018-10-17T15:34:43.416Z,9.93
2018-10-17T15:37:11.764Z,10.27
2018-10-17T15:39:40.125Z,10.60
2018-10-17T15:42:08.498Z,10.40
2018-10-17T15:44:37.000Z,10.93
2018-10-17T15:47:05.787Z,10.07
2018-10-17T15:49:34.089Z,10.70
2018-10-17T15:52:02.449Z,10.53
2018-10-17T15:54:30.797Z,10.63
2018-10-17T15:56:59.277Z,10.80
2018-10-17T15:59:27.585Z,11.77
2018-10-17T16:01:56.006Z,11.63
2018-10-17T16:04:24.341Z,12.07
2018-10-17T16:06:52.653Z,12.33
2018-10-17T16:09:21.137Z,11.80
2018-10-17T16:11:49.501Z,11.97
2018-10-17T16:14:17.929Z,11.33
2018-10-17T16:16:46.238Z,11.90
2018-10-17T16:19:14.630Z,13.13
2018-10-17T16:21:43.005Z,12.30
2018-10-17T16:24:11.518Z,12.73
2018-10-17T16:26:39.725Z,12.80
2018-10-17T16:29:08.137Z,12.63
2018-10-17T16:31:36.493Z,12.70
2018-10-17T16:34:04.917Z,12.60
2018-10-17T16:36:33.268Z,11.90
2018-10-17T16:39:01.655Z,13.37
2018-10-17T16:41:30.126Z,12.77
2018-10-17T16:43:58.462Z,12.93
2018-10-17T16:46:26.800Z,13.40
2018-10-17T16:48:55.122Z,12.80
2018-10-17T16:51:23.454Z,13.00
2018-10-17T16:53:51.927Z,13.47
2018-10-17T16:56:20.282Z,13.57
2018-10-17T16:58:48.681Z,14.00
2018-10-17T17:01:17.043Z,14.60
2018-10-17T17:03:45.425Z,14.33
2018-10-17T17:06:13.867Z,14.50
2018-10-17T17:08:42.205Z,15.07
2018-10-17T17:11:10.577Z,14.47
2018-10-17T17:13:38.970Z,16.87
2018-10-17T17:16:07.452Z,15.97
2018-10-17T17:18:36.025Z,18.97
2018-10-17T17:21:04.668Z,22.03
2018-10-17T17:23:32.964Z,18.90
2018-10-17T17:26:01.379Z,15.27
2018-10-17T17:28:29.745Z,16.73
2018-10-17T17:30:58.142Z,14.83
2018-10-17T17:33:26.601Z,15.87
2018-10-17T17:35:55.106Z,15.77
2018-10-17T17:38:23.451Z,14.97
2018-10-17T17:40:51.786Z,15.80
2018-10-17T17:43:20.244Z,17.30
2018-10-17T17:45:48.606Z,19.50
2018-10-17T17:48:16.956Z,18.63
2018-10-17T17:50:45.357Z,18.33
2018-10-17T17:53:13.813Z,21.07
2018-10-17T17:55:42.237Z,20.20
2018-10-17T17:58:10.786Z,20.87
2018-10-17T18:00:39.138Z,20.83
2018-10-17T18:03:07.507Z,18.80
2018-10-17T18:05:35.898Z,23.37
2018-10-17T18:08:04.350Z,23.63
2018-10-17T18:10:32.714Z,24.53
2018-10-17T18:13:01.489Z,24.73
2018-10-17T18:15:29.983Z,26.03
2018-10-17T18:17:58.361Z,27.17
2018-10-17T18:20:26.751Z,26.63
2018-10-17T18:22:55.107Z,27.30
2018-10-17T18:25:23.462Z,28.17
2018-10-17T18:27:52.101Z,26.93
2018-10-17T18:30:20.482Z,27.73
2018-10-17T18:32:48.953Z,24.00
2018-10-17T18:35:17.309Z,31.80
2018-10-17T18:37:45.642Z,33.60
2018-10-17T18:40:14.071Z,34.53
2018-10-17T18:42:42.357Z,32.43
2018-10-17T18:45:10.724Z,32.53
2018-10-17T18:47:39.192Z,32.57
2018-10-17T18:50:07.850Z,32.67
2018-10-17T18:52:36.270Z,31.67
2018-10-17T18:55:05.429Z,33.90
2018-10-17T18:57:33.801Z,34.47
2018-10-17T19:00:02.389Z,33.27
2018-10-17T19:02:30.839Z,33.90
2018-10-17T19:04:59.237Z,37.37
2018-10-17T19:07:27.726Z,37.83
2018-10-17T19:09:56.144Z,38.13
2018-10-17T19:12:24.587Z,40.40
2018-10-17T19:14:52.976Z,40.10
2018-10-17T19:17:21.309Z,42.93
2018-10-17T19:19:49.669Z,41.13
2018-10-17T19:22:18.026Z,44.73
2018-10-17T19:24:46.575Z,44.00
2018-10-17T19:27:15.130Z,51.47
2018-10-17T19:29:43.863Z,47.63
2018-10-17T19:32:12.242Z,48.27
2018-10-17T19:34:40.850Z,55.97
2018-10-17T19:37:09.262Z,55.57
2018-10-17T19:39:37.930Z,55.33
2018-10-17T19:42:06.400Z,57.43
2018-10-17T19:44:34.754Z,56.57
2018-10-17T19:47:03.122Z,58.73
2018-10-17T19:49:31.450Z,58.60
2018-10-17T19:51:59.822Z,64.90
2018-10-17T19:54:28.178Z,61.97
2018-10-17T19:56:56.587Z,64.37
2018-10-17T19:59:25.032Z,66.13
2018-10-17T20:01:53.441Z,65.23
2018-10-17T20:04:21.926Z,64.17
2018-10-17T20:06:50.337Z,73.03
2018-10-17T20:09:18.741Z,66.40
2018-10-17T20:11:47.127Z,66.40
2018-10-17T20:14:15.567Z,70.17
2018-10-17T20:16:43.990Z,71.50
2018-10-17T20:19:12.365Z,70.87
2018-10-17T20:21:40.756Z,73.77
2018-10-17T20:24:09.346Z,72.97
2018-10-17T20:26:37.700Z,72.87
2018-10-17T20:29:06.350Z,67.53
2018-10-17T20:31:34.694Z,72.33
2018-10-17T20:34:03.081Z,71.97
2018-10-17T20:36:31.433Z,67.13
2018-10-17T20:38:59.842Z,72.70
2018-10-17T20:41:28.225Z,77.67
2018-10-17T20:43:56.741Z,63.27
2018-10-17T20:46:25.081Z,75.33
2018-10-17T20:48:53.473Z,76.00
2018-10-17T20:51:21.941Z,77.80
2018-10-17T20:53:50.400Z,74.07
2018-10-17T20:56:19.034Z,79.60
2018-10-17T20:58:47.281Z,75.93
2018-10-17T21:01:15.693Z,80.53
2018-10-17T21:03:44.250Z,77.43
2018-10-17T21:06:12.645Z,84.63
2018-10-17T21:08:40.966Z,81.67
2018-10-17T21:11:09.417Z,78.37
2018-10-17T21:13:37.691Z,79.53
2018-10-17T21:16:06.043Z,84.57
2018-10-17T21:18:34.609Z,79.27
2018-10-17T21:21:02.908Z,76.87
2018-10-17T21:23:31.353Z,77.37
2018-10-17T21:26:02.613Z,78.57
2018-10-17T21:28:31.061Z,88.60
2018-10-17T21:30:59.506Z,87.53
2018-10-17T21:33:27.897Z,92.10
2018-10-17T21:35:56.263Z,89.90
2018-10-17T21:38:25.038Z,88.50
2018-10-17T21:40:53.497Z,89.53
2018-10-17T21:43:21.938Z,94.50
2018-10-17T21:45:50.328Z,93.10
2018-10-17T21:48:18.767Z,91.53
2018-10-17T21:50:47.409Z,90.80
2018-10-17T21:53:15.824Z,89.27
2018-10-17T21:55:44.304Z,91.70
2018-10-17T21:58:12.689Z,91.07
2018-10-17T22:00:41.169Z,91.67
2018-10-17T22:03:09.615Z,94.23
2018-10-17T22:05:38.025Z,89.67
2018-10-17T22:08:06.480Z,89.83
2018-10-17T22:10:34.749Z,86.00
2018-10-17T22:13:03.221Z,89.10
2018-10-17T22:15:31.733Z,83.73
2018-10-17T22:18:00.107Z,85.07
2018-10-17T22:20:28.525Z,88.27
2018-10-17T22:22:56.927Z,88.33
2018-10-17T22:25:25.281Z,88.30
2018-10-17T22:27:53.696Z,86.23
2018-10-17T22:30:22.081Z,84.37
2018-10-17T22:32:50.486Z,83.83
2018-10-17T22:35:18.950Z,82.93
2018-10-17T22:37:47.313Z,78.17
2018-10-17T22:40:15.667Z,82.90
2018-10-17T22:42:44.015Z,76.07
2018-10-17T22:45:12.356Z,78.17
2018-10-17T22:47:40.737Z,77.87
2018-10-17T22:50:09.814Z,74.53
2018-10-17T22:52:38.213Z,74.70
2018-10-17T22:55:06.753Z,79.40
2018-10-17T22:57:35.125Z,73.33
2018-10-17T23:00:03.516Z,81.53
2018-10-17T23:02:31.884Z,80.97
2018-10-17T23:05:00.270Z,77.30
2018-10-17T23:07:28.630Z,73.80
2018-10-17T23:09:56.980Z,71.87
2018-10-17T23:12:25.401Z,72.10
2018-10-17T23:14:53.842Z,73.93
2018-10-17T23:17:22.226Z,74.87
2018-10-17T23:19:50.633Z,73.93
2018-10-17T23:22:19.057Z,72.40
2018-10-17T23:24:47.458Z,70.17
2018-10-17T23:27:15.877Z,71.17
2018-10-17T23:29:44.294Z,68.10
2018-10-17T23:32:12.746Z,70.80
2018-10-17T23:34:41.058Z,68.57
2018-10-17T23:37:09.457Z,67.80
2018-10-17T23:39:37.934Z,73.13
2018-10-17T23:42:06.592Z,65.53
2018-10-17T23:44:34.853Z,67.13
2018-10-17T23:47:03.228Z,67.63
2018-10-17T23:49:31.609Z,63.70
2018-10-17T23:51:59.937Z,68.33
2018-10-17T23:54:28.313Z,66.60
2018-10-17T23:56:56.745Z,61.73
2018-10-17T23:59:25.121Z,64.93
